createdAt,value
2023-02-04T00:00:34.525Z,10.12
2023-02-04T00:01:37.398Z,10.11
2023-02-04T00:02:41.146Z,10.11
2023-02-04T00:04:03.731Z,10.12
2023-02-04T00:05:26.616Z,10.10
2023-02-04T00:06:48.182Z,10.09
2023-02-04T00:08:12.505Z,10.09
2023-02-04T00:09:34.023Z,10.10
2023-02-04T00:10:56.610Z,10.09
2023-02-04T00:12:19.162Z,10.08
2023-02-04T00:13:41.630Z,10.08
2023-02-04T00:15:03.640Z,10.08
2023-02-04T00:16:26.494Z,10.09
2023-02-04T00:17:49.014Z,10.10
2023-02-04T00:19:10.544Z,10.08
2023-02-04T00:20:33.208Z,10.09
2023-02-04T00:21:55.808Z,10.09
2023-02-04T00:23:18.654Z,10.08
2023-02-04T00:24:42.914Z,10.08
2023-02-04T00:26:05.898Z,10.08
2023-02-04T00:27:28.390Z,10.07
2023-02-04T00:28:49.961Z,10.07
2023-02-04T00:30:13.922Z,10.07
2023-02-04T00:31:36.516Z,10.07
2023-02-04T00:32:47.669Z,10.07
2023-02-04T00:33:50.317Z,10.08
2023-02-04T00:34:53.792Z,10.08
2023-02-04T00:35:56.669Z,10.08
2023-02-04T00:36:58.187Z,10.09
2023-02-04T00:38:00.761Z,10.09
2023-02-04T00:39:03.800Z,10.10
2023-02-04T00:40:06.923Z,10.10
2023-02-04T00:41:18.541Z,10.09
2023-02-04T00:42:21.380Z,10.10
2023-02-04T00:43:23.069Z,10.10
2023-02-04T00:44:25.595Z,10.10
2023-02-04T00:45:27.850Z,10.10
2023-02-04T00:46:30.409Z,10.11
2023-02-04T00:47:31.989Z,10.12
2023-02-04T00:48:35.552Z,10.11
2023-02-04T00:49:37.112Z,10.11
2023-02-04T00:50:39.758Z,10.11
2023-02-04T00:51:46.246Z,10.10
2023-02-04T00:52:48.826Z,10.10
2023-02-04T00:53:50.607Z,10.09
2023-02-04T00:54:55.587Z,10.08
2023-02-04T00:55:57.184Z,10.09
2023-02-04T00:57:01.794Z,10.09
2023-02-04T00:58:07.303Z,10.09
2023-02-04T00:59:10.099Z,10.09
2023-02-04T01:00:12.956Z,10.08
2023-02-04T01:01:16.676Z,10.10
2023-02-04T01:02:18.723Z,10.08
2023-02-04T01:03:21.597Z,10.09
2023-02-04T01:04:23.363Z,10.08
2023-02-04T01:05:25.846Z,10.08
2023-02-04T01:06:27.665Z,10.08
2023-02-04T01:07:30.291Z,10.07
2023-02-04T01:08:31.882Z,10.06
2023-02-04T01:09:34.641Z,10.07
2023-02-04T01:10:37.525Z,10.06
2023-02-04T01:11:40.324Z,10.06
2023-02-04T01:12:51.829Z,10.06
2023-02-04T01:13:54.713Z,10.06
2023-02-04T01:14:56.419Z,10.06
2023-02-04T01:15:58.976Z,10.07
2023-02-04T01:17:10.521Z,10.06
2023-02-04T01:18:23.006Z,10.07
2023-02-04T01:19:34.544Z,10.05
2023-02-04T01:20:37.465Z,10.05
2023-02-04T01:21:40.988Z,10.05
2023-02-04T01:22:43.838Z,10.05
2023-02-04T01:23:45.446Z,10.06
2023-02-04T01:24:48.901Z,10.07
2023-02-04T01:25:51.848Z,10.08
2023-02-04T01:26:54.390Z,10.09
2023-02-04T01:27:56.017Z,10.08
2023-02-04T01:28:58.545Z,10.07
2023-02-04T01:30:00.231Z,10.07
2023-02-04T01:31:02.874Z,10.07
2023-02-04T01:32:04.961Z,10.08
2023-02-04T01:33:07.637Z,10.07
2023-02-04T01:34:12.959Z,10.07
2023-02-04T01:35:19.512Z,10.06
2023-02-04T01:36:31.082Z,10.05
2023-02-04T01:37:36.208Z,10.04
2023-02-04T01:38:37.809Z,10.04
2023-02-04T01:39:40.389Z,10.03
2023-02-04T01:40:42.736Z,10.03
2023-02-04T01:41:46.618Z,10.03
2023-02-04T01:42:49.230Z,10.03
2023-02-04T01:43:50.751Z,10.03
2023-02-04T01:44:54.346Z,10.02
2023-02-04T01:45:57.012Z,10.01
2023-02-04T01:46:59.976Z,10.01
2023-02-04T01:48:04.007Z,10.00
2023-02-04T01:49:07.564Z,9.99
2023-02-04T01:50:19.183Z,9.99
2023-02-04T01:51:28.355Z,9.98
2023-02-04T01:52:36.419Z,9.98
2023-02-04T01:53:48.919Z,9.96
2023-02-04T01:54:51.916Z,9.95
2023-02-04T01:55:55.929Z,9.93
2023-02-04T01:56:59.144Z,9.93
2023-02-04T01:58:04.972Z,9.91
2023-02-04T01:59:11.772Z,9.91
2023-02-04T02:00:17.714Z,9.91
2023-02-04T02:01:35.565Z,9.91
2023-02-04T02:02:43.601Z,9.91
2023-02-04T02:03:45.135Z,9.91
2023-02-04T02:04:47.650Z,9.90
2023-02-04T02:05:51.741Z,9.90
2023-02-04T02:06:57.449Z,9.90
2023-02-04T02:08:02.023Z,9.91
2023-02-04T02:09:05.329Z,9.91
2023-02-04T02:10:11.760Z,9.89
2023-02-04T02:11:14.234Z,9.89
2023-02-04T02:12:17.324Z,9.88
2023-02-04T02:13:20.594Z,9.88
2023-02-04T02:14:22.826Z,9.88
2023-02-04T02:15:25.897Z,9.88
2023-02-04T02:16:27.419Z,9.88
2023-02-04T02:17:29.101Z,9.89
2023-02-04T02:18:31.729Z,9.89
2023-02-04T02:19:38.102Z,9.91
2023-02-04T02:20:41.143Z,9.93
2023-02-04T02:21:55.863Z,9.94
2023-02-04T02:23:04.604Z,9.95
2023-02-04T02:24:27.466Z,9.94
2023-02-04T02:25:30.621Z,9.93
2023-02-04T02:26:33.497Z,9.94
2023-02-04T02:27:37.207Z,9.93
2023-02-04T02:28:38.796Z,9.93
2023-02-04T02:29:43.267Z,9.93
2023-02-04T02:30:46.046Z,9.93
2023-02-04T02:31:48.829Z,9.93
2023-02-04T02:32:51.566Z,9.93
2023-02-04T02:33:54.052Z,9.91
2023-02-04T02:34:55.651Z,9.92
2023-02-04T02:35:58.204Z,9.92
2023-02-04T02:37:02.260Z,9.92
2023-02-04T02:38:04.745Z,9.91
2023-02-04T02:39:06.784Z,9.92
2023-02-04T02:40:12.219Z,9.92
2023-02-04T02:41:13.877Z,9.90
2023-02-04T02:42:18.841Z,9.89
2023-02-04T02:43:23.829Z,9.90
2023-02-04T02:44:27.745Z,9.91
2023-02-04T02:45:31.866Z,9.90
2023-02-04T02:46:37.675Z,9.89
2023-02-04T02:47:39.539Z,9.89
2023-02-04T02:48:42.127Z,9.88
2023-02-04T02:49:44.681Z,9.88
2023-02-04T02:50:48.077Z,9.88
2023-02-04T02:51:49.772Z,9.88
2023-02-04T02:52:52.872Z,9.88
2023-02-04T02:53:54.542Z,9.89
2023-02-04T02:54:57.051Z,9.89
2023-02-04T02:56:01.722Z,9.89
2023-02-04T02:57:04.303Z,9.89
2023-02-04T02:58:14.320Z,9.90
2023-02-04T02:59:18.667Z,9.89
2023-02-04T03:00:24.884Z,9.88
2023-02-04T03:01:32.283Z,9.86
2023-02-04T03:02:35.043Z,9.83
2023-02-04T03:03:51.970Z,9.82
2023-02-04T03:04:58.445Z,9.81
2023-02-04T03:06:05.558Z,9.81
2023-02-04T03:07:07.865Z,9.81
2023-02-04T03:08:12.099Z,9.81
2023-02-04T03:09:13.971Z,9.80
2023-02-04T03:10:17.214Z,9.80
2023-02-04T03:11:20.066Z,9.80
2023-02-04T03:12:22.743Z,9.80
2023-02-04T03:13:24.472Z,9.81
2023-02-04T03:14:28.050Z,9.81
2023-02-04T03:15:30.252Z,9.80
2023-02-04T03:16:36.713Z,9.81
2023-02-04T03:17:38.405Z,9.79
2023-02-04T03:18:41.131Z,9.78
2023-02-04T03:19:43.015Z,9.77
2023-02-04T03:20:54.572Z,9.77
2023-02-04T03:21:57.060Z,9.76
2023-02-04T03:22:59.983Z,9.76
2023-02-04T03:24:02.305Z,9.76
2023-02-04T03:25:06.536Z,9.76
2023-02-04T03:26:08.154Z,9.75
2023-02-04T03:27:12.101Z,9.75
2023-02-04T03:28:13.812Z,9.74
2023-02-04T03:29:16.498Z,9.74
2023-02-04T03:30:18.028Z,9.73
2023-02-04T03:31:21.219Z,9.73
2023-02-04T03:32:22.759Z,9.71
2023-02-04T03:33:31.245Z,9.72
2023-02-04T03:34:32.772Z,9.69
2023-02-04T03:35:35.259Z,9.69
2023-02-04T03:36:36.791Z,9.68
2023-02-04T03:37:39.598Z,9.67
2023-02-04T03:38:41.265Z,9.65
2023-02-04T03:39:44.142Z,9.63
2023-02-04T03:40:45.694Z,9.62
2023-02-04T03:41:49.476Z,9.61
2023-02-04T03:42:52.900Z,9.59
2023-02-04T03:44:00.072Z,9.61
2023-02-04T03:45:04.941Z,9.59
2023-02-04T03:46:07.684Z,9.59
2023-02-04T03:47:09.342Z,9.58
2023-02-04T03:48:11.833Z,9.56
2023-02-04T03:49:14.386Z,9.56
2023-02-04T03:50:16.160Z,9.54
2023-02-04T03:51:18.651Z,9.53
2023-02-04T03:52:20.284Z,9.52
2023-02-04T03:53:23.053Z,9.51
2023-02-04T03:54:24.682Z,9.50
2023-02-04T03:55:27.223Z,9.50
2023-02-04T03:56:28.714Z,9.49
2023-02-04T03:57:31.195Z,9.49
2023-02-04T03:58:34.071Z,9.48
2023-02-04T03:59:36.567Z,9.47
2023-02-04T04:00:38.363Z,9.45
2023-02-04T04:01:40.875Z,9.44
2023-02-04T04:02:42.439Z,9.43
2023-02-04T04:03:46.280Z,9.43
2023-02-04T04:04:48.614Z,9.42
2023-02-04T04:05:51.117Z,9.40
2023-02-04T04:06:52.864Z,9.37
2023-02-04T04:07:55.365Z,9.36
2023-02-04T04:08:56.884Z,9.36
2023-02-04T04:09:59.360Z,9.35
2023-02-04T04:11:00.858Z,9.35
2023-02-04T04:12:04.482Z,9.34
2023-02-04T04:13:06.034Z,9.34
2023-02-04T04:14:09.937Z,9.33
2023-02-04T04:15:11.531Z,9.32
2023-02-04T04:16:14.034Z,9.33
2023-02-04T04:17:15.573Z,9.32
2023-02-04T04:18:18.101Z,9.32
2023-02-04T04:19:19.775Z,9.32
2023-02-04T04:20:25.283Z,9.32
2023-02-04T04:21:27.136Z,9.31
2023-02-04T04:22:30.128Z,9.31
2023-02-04T04:23:41.651Z,9.31
2023-02-04T04:24:44.495Z,9.31
2023-02-04T04:25:46.216Z,9.31
2023-02-04T04:26:48.787Z,9.31
2023-02-04T04:27:50.374Z,9.31
2023-02-04T04:28:52.892Z,9.30
2023-02-04T04:29:56.571Z,9.31
2023-02-04T04:31:02.248Z,9.31
2023-02-04T04:32:05.113Z,9.29
2023-02-04T04:33:07.725Z,9.28
2023-02-04T04:34:09.274Z,9.28
2023-02-04T04:35:11.741Z,9.28
2023-02-04T04:36:14.703Z,9.28
2023-02-04T04:37:16.299Z,9.27
2023-02-04T04:38:18.786Z,9.29
2023-02-04T04:39:20.397Z,9.29
2023-02-04T04:40:22.951Z,9.29
2023-02-04T04:41:24.473Z,9.29
2023-02-04T04:42:26.947Z,9.28
2023-02-04T04:43:28.462Z,9.30
2023-02-04T04:44:31.115Z,9.30
2023-02-04T04:45:33.992Z,9.28
2023-02-04T04:46:40.514Z,9.28
2023-02-04T04:47:44.525Z,9.28
2023-02-04T04:48:47.264Z,9.28
2023-02-04T04:49:48.821Z,9.28
2023-02-04T04:51:00.995Z,9.29
2023-02-04T04:52:02.638Z,9.28
2023-02-04T04:53:05.129Z,9.27
2023-02-04T04:54:06.724Z,9.27
2023-02-04T04:55:09.905Z,9.27
2023-02-04T04:56:11.431Z,9.26
2023-02-04T04:57:13.949Z,9.25
2023-02-04T04:58:15.460Z,9.25
2023-02-04T04:59:17.975Z,9.24
2023-02-04T05:00:21.608Z,9.24
2023-02-04T05:01:33.451Z,9.25
2023-02-04T05:02:35.203Z,9.25
2023-02-04T05:03:37.749Z,9.24
2023-02-04T05:04:40.384Z,9.23
2023-02-04T05:05:44.806Z,9.22
2023-02-04T05:06:47.351Z,9.21
2023-02-04T05:07:49.942Z,9.22
2023-02-04T05:08:51.665Z,9.21
2023-02-04T05:09:54.164Z,9.22
2023-02-04T05:10:55.704Z,9.20
2023-02-04T05:11:58.215Z,9.20
2023-02-04T05:12:59.739Z,9.18
2023-02-04T05:14:02.240Z,9.17
2023-02-04T05:15:04.618Z,9.17
2023-02-04T05:16:07.446Z,9.17
2023-02-04T05:17:10.428Z,9.17
2023-02-04T05:18:13.122Z,9.17
2023-02-04T05:19:14.685Z,9.17
2023-02-04T05:20:17.336Z,9.17
2023-02-04T05:21:18.863Z,9.17
2023-02-04T05:22:21.386Z,9.17
2023-02-04T05:23:22.871Z,9.17
2023-02-04T05:24:25.349Z,9.18
2023-02-04T05:25:28.237Z,9.19
2023-02-04T05:26:31.482Z,9.18
2023-02-04T05:27:33.913Z,9.19
2023-02-04T05:28:36.712Z,9.19
2023-02-04T05:29:38.311Z,9.21
2023-02-04T05:30:41.301Z,9.21
2023-02-04T05:31:42.884Z,9.20
2023-02-04T05:32:46.844Z,9.18
2023-02-04T05:33:48.346Z,9.21
2023-02-04T05:34:50.922Z,9.21
2023-02-04T05:35:52.456Z,9.21
2023-02-04T05:36:54.946Z,9.21
2023-02-04T05:37:56.505Z,9.20
2023-02-04T05:38:59.332Z,9.20
2023-02-04T05:40:00.927Z,9.19
2023-02-04T05:41:03.416Z,9.20
2023-02-04T05:42:05.212Z,9.19
2023-02-04T05:43:07.737Z,9.19
2023-02-04T05:44:09.511Z,9.19
2023-02-04T05:45:15.487Z,9.19
2023-02-04T05:46:25.977Z,9.19
2023-02-04T05:47:28.938Z,9.19
2023-02-04T05:48:35.440Z,9.20
2023-02-04T05:49:38.416Z,9.19
2023-02-04T05:50:39.963Z,9.19
2023-02-04T05:51:42.549Z,9.18
2023-02-04T05:52:44.158Z,9.18
2023-02-04T05:53:46.659Z,9.18
2023-02-04T05:54:48.162Z,9.18
2023-02-04T05:55:50.654Z,9.17
2023-02-04T05:56:52.198Z,9.17
2023-02-04T05:57:54.698Z,9.17
2023-02-04T05:58:56.411Z,9.15
2023-02-04T05:59:59.242Z,9.15
2023-02-04T06:01:01.222Z,9.13
2023-02-04T06:02:03.943Z,9.13
2023-02-04T06:03:05.472Z,9.13
2023-02-04T06:04:09.480Z,9.12
2023-02-04T06:05:11.016Z,9.13
2023-02-04T06:06:13.731Z,9.11
2023-02-04T06:07:15.470Z,9.11
2023-02-04T06:08:17.980Z,9.11
2023-02-04T06:09:19.599Z,9.11
2023-02-04T06:10:22.928Z,9.10
2023-02-04T06:11:25.182Z,9.11
2023-02-04T06:12:27.779Z,9.10
2023-02-04T06:13:29.415Z,9.09
2023-02-04T06:14:31.889Z,9.08
2023-02-04T06:15:33.418Z,9.08
2023-02-04T06:16:36.262Z,9.09
2023-02-04T06:17:37.835Z,9.08
2023-02-04T06:18:40.521Z,9.09
2023-02-04T06:19:43.496Z,9.09
2023-02-04T06:20:46.017Z,9.09
2023-02-04T06:21:47.620Z,9.09
2023-02-04T06:22:51.547Z,9.09
2023-02-04T06:23:53.080Z,9.11
2023-02-04T06:24:55.690Z,9.11
2023-02-04T06:25:57.229Z,9.11
2023-02-04T06:26:59.718Z,9.10
2023-02-04T06:28:01.344Z,9.09
2023-02-04T06:29:03.934Z,9.09
2023-02-04T06:30:06.264Z,9.08
2023-02-04T06:31:09.118Z,9.09
2023-02-04T06:32:15.759Z,9.08
2023-02-04T06:33:18.792Z,9.09
2023-02-04T06:34:21.015Z,9.08
2023-02-04T06:35:24.832Z,9.09
2023-02-04T06:36:26.378Z,9.08
2023-02-04T06:37:28.895Z,9.08
2023-02-04T06:38:30.610Z,9.09
2023-02-04T06:39:33.118Z,9.10
2023-02-04T06:40:34.791Z,9.10
2023-02-04T06:41:38.108Z,9.10
2023-02-04T06:42:39.665Z,9.11
2023-02-04T06:43:42.152Z,9.10
2023-02-04T06:44:43.745Z,9.10
2023-02-04T06:45:46.384Z,9.11
2023-02-04T06:46:47.962Z,9.10
2023-02-04T06:47:50.509Z,9.09
2023-02-04T06:48:52.401Z,9.09
2023-02-04T06:49:55.292Z,9.09
2023-02-04T06:50:58.510Z,9.10
2023-02-04T06:52:00.990Z,9.09
2023-02-04T06:53:02.500Z,9.08
2023-02-04T06:54:04.978Z,9.08
2023-02-04T06:55:06.647Z,9.08
2023-02-04T06:56:09.151Z,9.07
2023-02-04T06:57:11.858Z,9.07
2023-02-04T06:58:14.352Z,9.06
2023-02-04T06:59:15.903Z,9.06
2023-02-04T07:00:18.703Z,9.05
2023-02-04T07:01:29.113Z,9.03
2023-02-04T07:02:31.618Z,9.03
2023-02-04T07:03:33.959Z,9.02
2023-02-04T07:04:36.450Z,9.01
2023-02-04T07:05:38.223Z,9.03
2023-02-04T07:06:42.105Z,9.02
2023-02-04T07:07:43.648Z,9.02
2023-02-04T07:08:47.353Z,9.02
2023-02-04T07:09:48.917Z,9.01
2023-02-04T07:10:51.819Z,9.02
2023-02-04T07:11:56.425Z,9.01
2023-02-04T07:12:59.146Z,9.02
2023-02-04T07:14:00.886Z,9.02
2023-02-04T07:15:03.458Z,9.03
2023-02-04T07:16:06.153Z,9.04
2023-02-04T07:17:08.699Z,9.06
2023-02-04T07:18:19.792Z,9.07
2023-02-04T07:19:22.367Z,9.08
2023-02-04T07:20:24.872Z,9.07
2023-02-04T07:21:36.420Z,9.08
2023-02-04T07:22:40.252Z,9.08
2023-02-04T07:23:41.882Z,9.07
2023-02-04T07:24:44.374Z,9.06
2023-02-04T07:25:46.115Z,9.04
2023-02-04T07:26:48.615Z,9.03
2023-02-04T07:27:50.227Z,9.00
2023-02-04T07:28:53.156Z,8.99
2023-02-04T07:29:55.801Z,8.97
2023-02-04T07:31:00.685Z,8.96
2023-02-04T07:32:03.562Z,8.94
2023-02-04T07:33:06.150Z,8.93
2023-02-04T07:34:07.651Z,8.92
2023-02-04T07:35:11.682Z,8.92
2023-02-04T07:36:15.284Z,8.92
2023-02-04T07:37:17.828Z,8.94
2023-02-04T07:38:20.697Z,8.94
2023-02-04T07:39:23.240Z,8.94
2023-02-04T07:40:24.798Z,8.95
2023-02-04T07:41:27.614Z,8.95
2023-02-04T07:42:29.236Z,8.96
2023-02-04T07:43:31.930Z,8.97
2023-02-04T07:44:33.466Z,8.98
2023-02-04T07:45:35.965Z,8.98
2023-02-04T07:46:38.063Z,9.00
2023-02-04T07:47:40.636Z,9.02
2023-02-04T07:48:42.129Z,9.03
2023-02-04T07:49:44.654Z,9.05
2023-02-04T07:50:46.223Z,9.05
2023-02-04T07:51:49.121Z,9.06
2023-02-04T07:52:51.012Z,9.07
2023-02-04T07:53:55.117Z,9.06
2023-02-04T07:54:56.774Z,9.07
2023-02-04T07:56:02.102Z,9.08
2023-02-04T07:57:03.732Z,9.09
2023-02-04T07:58:06.290Z,9.08
2023-02-04T07:59:07.796Z,9.10
2023-02-04T08:00:13.995Z,9.10
2023-02-04T08:01:24.277Z,9.11
2023-02-04T08:02:27.022Z,9.12
2023-02-04T08:03:29.564Z,9.13
2023-02-04T08:04:31.113Z,9.15
2023-02-04T08:05:33.624Z,9.15
2023-02-04T08:06:35.211Z,9.17
2023-02-04T08:07:37.742Z,9.16
2023-02-04T08:08:39.295Z,9.17
2023-02-04T08:09:43.150Z,9.18
2023-02-04T08:10:45.030Z,9.19
2023-02-04T08:11:47.515Z,9.19
2023-02-04T08:12:50.002Z,9.20
2023-02-04T08:13:51.941Z,9.22
2023-02-04T08:14:54.465Z,9.23
2023-02-04T08:15:56.110Z,9.25
2023-02-04T08:16:59.039Z,9.27
2023-02-04T08:18:00.688Z,9.27
2023-02-04T08:19:03.173Z,9.29
2023-02-04T08:20:05.153Z,9.29
2023-02-04T08:21:07.868Z,9.29
2023-02-04T08:22:10.539Z,9.30
2023-02-04T08:23:13.081Z,9.30
2023-02-04T08:24:15.506Z,9.31
2023-02-04T08:25:19.346Z,9.31
2023-02-04T08:26:21.562Z,9.31
2023-02-04T08:27:24.924Z,9.33
2023-02-04T08:28:26.692Z,9.32
2023-02-04T08:29:29.240Z,9.32
2023-02-04T08:30:31.213Z,9.33
2023-02-04T08:31:34.133Z,9.33
2023-02-04T08:32:36.022Z,9.34
2023-02-04T08:33:38.698Z,9.35
2023-02-04T08:34:40.504Z,9.37
2023-02-04T08:35:43.011Z,9.38
2023-02-04T08:36:44.677Z,9.40
2023-02-04T08:37:47.223Z,9.41
2023-02-04T08:38:48.752Z,9.44
2023-02-04T08:39:51.420Z,9.45
2023-02-04T08:40:54.593Z,9.48
2023-02-04T08:41:57.112Z,9.49
2023-02-04T08:42:58.645Z,9.49
2023-02-04T08:44:01.108Z,9.49
2023-02-04T08:45:03.787Z,9.51
2023-02-04T08:46:06.465Z,9.53
2023-02-04T08:47:08.735Z,9.55
2023-02-04T08:48:11.840Z,9.57
2023-02-04T08:49:14.622Z,9.58
2023-02-04T08:50:17.163Z,9.60
2023-02-04T08:51:29.748Z,9.61
2023-02-04T08:52:31.311Z,9.64
2023-02-04T08:53:33.832Z,9.66
2023-02-04T08:54:35.597Z,9.67
2023-02-04T08:55:38.142Z,9.68
2023-02-04T08:56:41.005Z,9.68
2023-02-04T08:57:43.546Z,9.69
2023-02-04T08:58:45.391Z,9.68
2023-02-04T08:59:47.864Z,9.68
2023-02-04T09:00:49.399Z,9.69
2023-02-04T09:01:52.462Z,9.71
2023-02-04T09:02:54.030Z,9.72
2023-02-04T09:03:56.551Z,9.71
2023-02-04T09:04:58.250Z,9.73
2023-02-04T09:06:01.010Z,9.75
2023-02-04T09:07:03.453Z,9.75
2023-02-04T09:08:16.611Z,9.74
2023-02-04T09:09:20.425Z,9.76
2023-02-04T09:10:24.239Z,9.78
2023-02-04T09:11:26.150Z,9.78
2023-02-04T09:12:29.969Z,9.78
2023-02-04T09:13:32.614Z,9.80
2023-02-04T09:14:35.145Z,9.80
2023-02-04T09:15:37.664Z,9.83
2023-02-04T09:16:39.275Z,9.82
2023-02-04T09:17:43.759Z,9.83
2023-02-04T09:18:46.361Z,9.82
2023-02-04T09:19:47.889Z,9.82
2023-02-04T09:20:50.628Z,9.82
2023-02-04T09:21:52.216Z,9.81
2023-02-04T09:22:54.687Z,9.81
2023-02-04T09:23:56.409Z,9.83
2023-02-04T09:24:58.929Z,9.85
2023-02-04T09:26:03.502Z,9.87
2023-02-04T09:27:05.079Z,9.87
2023-02-04T09:28:11.395Z,9.88
2023-02-04T09:29:13.307Z,9.89
2023-02-04T09:30:16.376Z,9.91
2023-02-04T09:31:18.716Z,9.93
2023-02-04T09:32:21.796Z,9.93
2023-02-04T09:33:23.917Z,9.95
2023-02-04T09:34:26.422Z,9.99
2023-02-04T09:35:31.067Z,10.00
2023-02-04T09:36:37.765Z,10.04
2023-02-04T09:37:40.273Z,10.06
2023-02-04T09:38:41.818Z,10.09
2023-02-04T09:39:44.286Z,10.12
2023-02-04T09:40:49.758Z,10.13
2023-02-04T09:41:54.089Z,10.13
2023-02-04T09:42:56.309Z,10.14
2023-02-04T09:44:01.223Z,10.15
2023-02-04T09:45:03.452Z,10.16
2023-02-04T09:46:21.352Z,10.17
2023-02-04T09:47:26.526Z,10.20
2023-02-04T09:48:29.275Z,10.20
2023-02-04T09:49:32.386Z,10.22
2023-02-04T09:50:35.356Z,10.24
2023-02-04T09:51:37.051Z,10.24
2023-02-04T09:52:40.704Z,10.25
2023-02-04T09:53:42.334Z,10.25
2023-02-04T09:54:45.940Z,10.25
2023-02-04T09:55:48.732Z,10.27
2023-02-04T09:56:52.837Z,10.25
2023-02-04T09:57:54.473Z,10.25
2023-02-04T09:58:56.965Z,10.23
2023-02-04T10:00:01.254Z,10.23
2023-02-04T10:01:14.735Z,10.23
2023-02-04T10:02:24.702Z,10.21
2023-02-04T10:03:27.349Z,10.18
2023-02-04T10:04:29.429Z,10.17
2023-02-04T10:05:37.068Z,10.18
2023-02-04T10:06:39.138Z,10.19
2023-02-04T10:07:42.137Z,10.19
2023-02-04T10:08:45.240Z,10.22
2023-02-04T10:09:49.197Z,10.24
2023-02-04T10:10:50.873Z,10.24
2023-02-04T10:11:53.462Z,10.25
2023-02-04T10:12:57.228Z,10.26
2023-02-04T10:13:59.732Z,10.26
2023-02-04T10:15:03.848Z,10.26
2023-02-04T10:16:12.895Z,10.26
2023-02-04T10:17:20.612Z,10.26
2023-02-04T10:18:28.751Z,10.26
2023-02-04T10:19:31.946Z,10.27
2023-02-04T10:20:43.501Z,10.25
2023-02-04T10:21:46.970Z,10.26
2023-02-04T10:22:51.342Z,10.26
2023-02-04T10:23:57.614Z,10.25
2023-02-04T10:24:59.187Z,10.24
2023-02-04T10:26:01.682Z,10.23
2023-02-04T10:27:11.719Z,10.25
2023-02-04T10:28:14.272Z,10.24
2023-02-04T10:29:17.525Z,10.25
2023-02-04T10:30:23.829Z,10.26
2023-02-04T10:31:30.840Z,10.28
2023-02-04T10:32:34.474Z,10.29
2023-02-04T10:33:37.325Z,10.29
2023-02-04T10:34:40.753Z,10.29
2023-02-04T10:35:46.969Z,10.30
2023-02-04T10:36:52.217Z,10.32
2023-02-04T10:38:05.693Z,10.32
2023-02-04T10:39:12.043Z,10.34
2023-02-04T10:40:28.207Z,10.36
2023-02-04T10:41:30.028Z,10.38
2023-02-04T10:42:32.781Z,10.39
2023-02-04T10:43:34.321Z,10.38
2023-02-04T10:44:36.983Z,10.42
2023-02-04T10:45:40.170Z,10.44
2023-02-04T10:46:42.757Z,10.45
2023-02-04T10:47:51.372Z,10.49
2023-02-04T10:48:54.249Z,10.49
2023-02-04T10:50:04.628Z,10.49
2023-02-04T10:51:06.722Z,10.51
2023-02-04T10:52:17.144Z,10.52
2023-02-04T10:53:38.858Z,10.53
2023-02-04T10:54:40.386Z,10.55
2023-02-04T10:55:43.542Z,10.55
2023-02-04T10:56:45.579Z,10.58
2023-02-04T10:57:50.695Z,10.59
2023-02-04T10:58:52.270Z,10.64
2023-02-04T10:59:56.940Z,10.66
2023-02-04T11:00:59.910Z,10.69
2023-02-04T11:02:15.256Z,10.72
2023-02-04T11:03:23.085Z,10.76
2023-02-04T11:04:25.885Z,10.80
2023-02-04T11:05:32.075Z,10.83
2023-02-04T11:06:33.616Z,10.89
2023-02-04T11:07:36.200Z,10.95
2023-02-04T11:08:40.423Z,11.03
2023-02-04T11:09:43.382Z,11.07
2023-02-04T11:10:51.978Z,11.12
2023-02-04T11:12:04.703Z,11.17
2023-02-04T11:13:06.966Z,11.21
2023-02-04T11:14:26.473Z,11.21
2023-02-04T11:15:42.232Z,11.18
2023-02-04T11:16:49.609Z,11.16
2023-02-04T11:18:04.265Z,11.16
2023-02-04T11:19:11.800Z,11.16
2023-02-04T11:20:15.631Z,11.16
2023-02-04T11:21:27.074Z,11.18
2023-02-04T11:22:41.418Z,11.17
2023-02-04T11:23:44.009Z,11.18
2023-02-04T11:24:45.566Z,11.17
2023-02-04T11:25:48.688Z,11.18
2023-02-04T11:26:54.491Z,11.18
2023-02-04T11:27:56.076Z,11.18
2023-02-04T11:29:25.428Z,11.19
2023-02-04T11:30:33.585Z,11.18
2023-02-04T11:31:59.400Z,11.16
2023-02-04T11:33:04.548Z,11.14
2023-02-04T11:34:10.843Z,11.12
2023-02-04T11:35:28.926Z,11.12
2023-02-04T11:36:31.322Z,11.12
2023-02-04T11:37:39.508Z,11.12
2023-02-04T11:38:46.065Z,11.12
2023-02-04T11:39:49.820Z,11.13
2023-02-04T11:40:57.678Z,11.15
2023-02-04T11:41:59.581Z,11.17
2023-02-04T11:43:04.548Z,11.18
2023-02-04T11:44:08.683Z,11.19
2023-02-04T11:45:16.349Z,11.20
2023-02-04T11:46:19.607Z,11.19
2023-02-04T11:47:24.887Z,11.22
2023-02-04T11:48:27.672Z,11.26
2023-02-04T11:49:30.296Z,11.30
2023-02-04T11:50:35.397Z,11.34
2023-02-04T11:51:36.914Z,11.37
2023-02-04T11:52:39.382Z,11.38
2023-02-04T11:53:42.471Z,11.40
2023-02-04T11:54:53.438Z,11.40
2023-02-04T11:55:58.394Z,11.40
2023-02-04T11:57:01.125Z,11.40
2023-02-04T11:58:07.224Z,11.43
2023-02-04T11:59:21.351Z,11.41
2023-02-04T12:00:25.770Z,11.39
2023-02-04T12:01:31.808Z,11.38
2023-02-04T12:02:46.664Z,11.36
2023-02-04T12:03:51.211Z,11.34
2023-02-04T12:04:54.903Z,11.33
2023-02-04T12:05:59.250Z,11.32
2023-02-04T12:07:03.349Z,11.32
2023-02-04T12:08:14.388Z,11.32
2023-02-04T12:09:24.860Z,11.33
2023-02-04T12:10:28.142Z,11.34
2023-02-04T12:11:30.496Z,11.36
2023-02-04T12:12:43.398Z,11.38
2023-02-04T12:13:49.447Z,11.41
2023-02-04T12:14:59.121Z,11.42
2023-02-04T12:16:03.541Z,11.44
2023-02-04T12:17:15.947Z,11.48
2023-02-04T12:18:20.294Z,11.50
2023-02-04T12:19:22.396Z,11.52
2023-02-04T12:20:25.057Z,11.54
2023-02-04T12:21:26.600Z,11.57
2023-02-04T12:22:29.100Z,11.60
2023-02-04T12:23:31.616Z,11.61
2023-02-04T12:24:33.167Z,11.63
2023-02-04T12:25:35.859Z,11.64
2023-02-04T12:26:38.344Z,11.63
2023-02-04T12:27:39.861Z,11.61
2023-02-04T12:28:42.398Z,11.60
2023-02-04T12:29:44.064Z,11.57
2023-02-04T12:30:46.967Z,11.54
2023-02-04T12:31:48.717Z,11.52
2023-02-04T12:32:51.318Z,11.50
2023-02-04T12:33:55.403Z,11.50
2023-02-04T12:34:56.959Z,11.54
2023-02-04T12:35:59.438Z,11.57
2023-02-04T12:37:01.949Z,11.59
2023-02-04T12:38:03.776Z,11.62
2023-02-04T12:39:06.675Z,11.64
2023-02-04T12:40:11.418Z,11.66
2023-02-04T12:41:20.881Z,11.66
2023-02-04T12:42:24.718Z,11.64
2023-02-04T12:43:28.377Z,11.64
2023-02-04T12:44:31.408Z,11.63
2023-02-04T12:45:34.845Z,11.64
2023-02-04T12:46:36.596Z,11.63
2023-02-04T12:47:39.579Z,11.65
2023-02-04T12:51:14.134Z,11.61
2023-02-04T12:52:16.902Z,11.59
2023-02-04T12:53:19.421Z,11.59
2023-02-04T12:54:21.910Z,11.58
2023-02-04T12:55:24.737Z,11.57
2023-02-04T12:56:27.681Z,11.55
2023-02-04T12:57:29.268Z,11.52
2023-02-04T12:58:31.832Z,11.49
2023-02-04T12:59:33.589Z,11.46
2023-02-04T13:00:36.189Z,11.44
2023-02-04T13:01:38.963Z,11.44
2023-02-04T13:02:41.614Z,11.44
2023-02-04T13:03:44.113Z,11.45
2023-02-04T13:04:46.602Z,11.46
2023-02-04T13:05:48.241Z,11.46
2023-02-04T13:06:52.087Z,11.45
2023-02-04T13:07:54.974Z,11.44
2023-02-04T13:08:57.119Z,11.43
2023-02-04T13:10:00.980Z,11.42
2023-02-04T13:11:05.472Z,11.41
2023-02-04T13:12:07.341Z,11.40
2023-02-04T13:13:09.858Z,11.39
2023-02-04T13:14:12.339Z,11.36
2023-02-04T13:15:13.908Z,11.36
2023-02-04T13:16:17.985Z,11.35
2023-02-04T13:17:20.746Z,11.33
2023-02-04T13:18:22.339Z,11.32
2023-02-04T13:19:24.821Z,11.30
2023-02-04T13:20:26.936Z,11.29
2023-02-04T13:21:29.414Z,11.28
2023-02-04T13:22:32.469Z,11.27
2023-02-04T13:23:35.018Z,11.27
2023-02-04T13:24:36.611Z,11.25
2023-02-04T13:25:39.186Z,11.25
2023-02-04T13:26:41.683Z,11.24
2023-02-04T13:27:43.196Z,11.23
2023-02-04T13:28:45.975Z,11.22
2023-02-04T13:29:48.633Z,11.19
2023-02-04T13:30:51.174Z,11.17
2023-02-04T13:31:53.642Z,11.17
2023-02-04T13:32:57.268Z,11.17
2023-02-04T13:33:59.805Z,11.19
2023-02-04T13:35:01.586Z,11.19
2023-02-04T13:36:04.649Z,11.20
2023-02-04T13:37:06.152Z,11.20
2023-02-04T13:38:09.971Z,11.20
2023-02-04T13:39:11.887Z,11.21
2023-02-04T13:40:14.900Z,11.24
2023-02-04T13:41:17.411Z,11.24
2023-02-04T13:42:19.014Z,11.27
2023-02-04T13:43:21.503Z,11.29
2023-02-04T13:44:23.026Z,11.30
2023-02-04T13:45:25.534Z,11.31
2023-02-04T13:46:27.111Z,11.31
2023-02-04T13:47:29.589Z,11.31
2023-02-04T13:48:32.987Z,11.30
2023-02-04T13:49:45.509Z,11.32
2023-02-04T13:50:49.261Z,11.33
2023-02-04T13:51:50.826Z,11.33
2023-02-04T13:52:53.395Z,11.33
2023-02-04T13:53:56.573Z,11.34
2023-02-04T13:54:59.089Z,11.33
2023-02-04T13:56:01.376Z,11.32
2023-02-04T13:57:05.257Z,11.31
2023-02-04T13:58:07.774Z,11.31
2023-02-04T13:59:09.400Z,11.28
2023-02-04T14:00:13.652Z,11.28
2023-02-04T14:01:18.548Z,11.27
2023-02-04T14:02:23.503Z,11.28
2023-02-04T14:03:25.628Z,11.30
2023-02-04T14:04:28.271Z,11.32